Time;durP1;ratioP1;P1;durP2;ratioP2;P2;SDS_P1;SDS_P2;PMS_P1;PMS_P2;Temp;Humidity;BMP_temperature;BMP_pressure;BME280_temperature;BME280_humidity;BME280_pressure;Samples;Min_cycle;Max_cycle;Signal;HPM_P1;HPM_P2
2022/12/01 00:02:14;;;;;;;95.80;38.72;;;;;;;7.92;100.00;100282.28;5082655;28;20075;-81
2022/12/01 00:04:39;;;;;;;95.20;38.05;;;;;;;8.06;100.00;100289.63;5081720;28;20032;-81
2022/12/01 00:07:05;;;;;;;99.38;37.38;;;;;;;8.03;100.00;100276.03;5074177;28;20024;-81
2022/12/01 00:12:15;;;;;;;100.65;38.03;;;;;;;7.74;100.00;100264.75;5077389;28;20039;-81
2022/12/01 00:14:43;;;;;;;101.88;36.08;;;;;;;7.79;100.00;100267.75;5078836;28;20031;-81
2022/12/01 00:17:09;;;;;;;96.55;36.75;;;;;;;7.76;100.00;100282.91;5074757;28;20028;-81
2022/12/01 00:19:34;;;;;;;98.60;36.75;;;;;;;7.70;100.00;100273.88;5075534;28;20067;-80
2022/12/01 00:22:00;;;;;;;106.10;39.03;;;;;;;7.64;100.00;100283.09;5056335;28;20028;-80
2022/12/01 00:24:26;;;;;;;102.75;37.67;;;;;;;7.74;100.00;100290.91;5079421;28;20024;-81
2022/12/01 00:26:51;;;;;;;104.07;37.42;;;;;;;7.72;100.00;100293.63;5079348;28;20072;-80
2022/12/01 00:29:17;;;;;;;100.55;37.10;;;;;;;7.75;100.00;100281.25;5066232;28;20482;-80
2022/12/01 00:31:42;;;;;;;89.93;34.10;;;;;;;7.80;100.00;100285.06;5076971;28;20064;-81
2022/12/01 00:34:21;;;;;;;99.15;36.97;;;;;;;7.86;100.00;100286.28;5078400;28;20108;-81
2022/12/01 00:36:48;;;;;;;106.93;38.55;;;;;;;7.49;100.00;100282.75;5075049;28;20032;-81
2022/12/01 00:39:15;;;;;;;102.95;37.22;;;;;;;7.51;100.00;100279.97;5060659;28;20414;-81
2022/12/01 00:41:41;;;;;;;96.88;35.47;;;;;;;7.48;100.00;100285.50;5061639;28;20020;-81
2022/12/01 00:44:06;;;;;;;91.72;33.33;;;;;;;7.47;100.00;100282.06;5072345;28;20543;-80
2022/12/01 00:46:32;;;;;;;93.70;34.03;;;;;;;7.46;100.00;100295.28;5074745;28;20027;-81
2022/12/01 00:48:57;;;;;;;88.18;34.33;;;;;;;7.43;100.00;100291.16;5076435;28;20054;-81
2022/12/01 00:51:23;;;;;;;94.57;35.58;;;;;;;7.47;100.00;100291.69;5075097;28;20472;-82
2022/12/01 00:53:49;;;;;;;86.28;33.15;;;;;;;7.09;100.00;100286.44;5082085;28;20432;-81
2022/12/01 00:56:15;;;;;;;87.65;32.53;;;;;;;7.18;100.00;100284.78;5077698;28;20078;-81
2022/12/01 00:58:40;;;;;;;92.95;33.22;;;;;;;7.23;100.00;100282.56;5084185;28;20028;-81
2022/12/01 01:01:06;;;;;;;93.57;33.53;;;;;;;7.32;100.00;100278.28;5078646;28;20035;-81
2022/12/01 01:03:33;;;;;;;99.25;35.22;;;;;;;7.16;100.00;100271.84;5072805;28;20038;-81
2022/12/01 01:06:04;;;;;;;94.13;34.00;;;;;;;7.37;100.00;100263.81;5073549;28;20036;-81
2022/12/01 01:08:30;;;;;;;95.75;33.90;;;;;;;7.33;100.00;100261.63;5079367;28;20111;-80
2022/12/01 01:10:58;;;;;;;89.50;31.90;;;;;;;7.51;100.00;100265.16;5078849;28;20032;-80
2022/12/01 01:13:24;;;;;;;85.85;32.88;;;;;;;7.61;100.00;100261.66;5080191;28;20032;-81
2022/12/01 01:16:05;;;;;;;108.25;37.03;;;;;;;7.58;100.00;100257.56;5076021;28;20032;-81
2022/12/01 01:18:31;;;;;;;104.30;33.72;;;;;;;7.63;100.00;100257.09;5075740;28;20047;-81
2022/12/01 01:21:03;;;;;;;102.22;35.60;;;;;;;7.87;100.00;100259.19;5080844;28;20028;-81
2022/12/01 01:23:28;;;;;;;93.78;33.13;;;;;;;7.92;100.00;100258.75;5076708;28;20043;-80
2022/12/01 01:26:03;;;;;;;98.78;33.10;;;;;;;8.00;100.00;100256.22;5075430;28;20020;-82
2022/12/01 01:28:30;;;;;;;95.40;32.75;;;;;;;8.09;100.00;100257.13;5072277;28;20458;-81
2022/12/01 01:30:56;;;;;;;96.90;35.40;;;;;;;8.13;100.00;100254.06;5064162;28;20504;-81
2022/12/01 01:33:23;;;;;;;96.43;32.95;;;;;;;8.16;100.00;100250.34;5079906;28;20024;-81
2022/12/01 01:35:48;;;;;;;93.22;32.00;;;;;;;8.14;100.00;100250.47;5075093;28;20032;-81
2022/12/01 01:38:15;;;;;;;95.28;34.17;;;;;;;8.20;100.00;100249.06;5082463;28;20027;-80
2022/12/01 01:40:44;;;;;;;93.63;32.88;;;;;;;8.31;100.00;100244.56;5076429;28;20038;-81
2022/12/01 01:43:15;;;;;;;90.47;33.65;;;;;;;8.29;100.00;100252.59;5078855;28;20446;-82
2022/12/01 01:45:41;;;;;;;93.05;32.50;;;;;;;8.06;100.00;100255.63;5076495;28;21579;-80
2022/12/01 01:48:08;;;;;;;78.82;27.73;;;;;;;8.15;100.00;100252.13;5080841;28;20488;-81
2022/12/01 01:50:34;;;;;;;81.88;29.00;;;;;;;8.25;100.00;100259.06;5073860;28;20163;-81
2022/12/01 01:53:03;;;;;;;78.57;27.95;;;;;;;8.36;100.00;100258.03;5074713;28;20494;-81
2022/12/01 01:55:32;;;;;;;73.50;28.60;;;;;;;8.01;100.00;100255.25;5080022;28;20048;-81
2022/12/01 01:57:58;;;;;;;77.38;29.20;;;;;;;8.13;100.00;100253.22;5080548;28;20020;-82
2022/12/01 02:00:24;;;;;;;84.65;28.52;;;;;;;7.98;100.00;100256.38;5077745;28;20039;-81
2022/12/01 02:02:52;;;;;;;66.90;26.02;;;;;;;8.11;100.00;100250.78;5085401;28;20378;-81
2022/12/01 02:05:19;;;;;;;74.35;26.15;;;;;;;8.09;100.00;100254.50;5078634;28;20036;-80
2022/12/01 02:07:46;;;;;;;68.47;26.25;;;;;;;8.10;100.00;100259.59;5076741;28;20078;-80
2022/12/01 02:10:13;;;;;;;65.38;25.48;;;;;;;8.14;100.00;100267.94;5081167;28;20551;-80
2022/12/01 02:13:07;;;;;;;70.47;26.60;;;;;;;8.16;100.00;100273.88;5082462;28;20422;-81
2022/12/01 02:15:52;;;;;;;;;;;;;;;8.29;100.00;100276.13;5079611;28;20032;-81
2022/12/01 02:18:35;;;;;;;62.92;24.67;;;;;;;8.09;100.00;100278.88;5080543;28;20361;-81
2022/12/01 02:21:37;;;;;;;61.50;24.33;;;;;;;8.39;100.00;100283.91;5077565;28;21010;-82
2022/12/01 02:24:21;;;;;;;70.35;25.58;;;;;;;8.40;100.00;100290.78;5056527;28;20086;-80
2022/12/01 02:27:00;;;;;;;66.07;24.73;;;;;;;8.38;100.00;100298.75;5083793;28;20036;-81
2022/12/01 02:29:45;;;;;;;55.58;24.13;;;;;;;8.53;100.00;100306.13;5080510;28;20032;-81
2022/12/01 02:32:29;;;;;;;61.95;24.73;;;;;;;8.47;100.00;100306.72;5080352;28;20086;-81
2022/12/01 02:35:01;;;;;;;63.22;24.95;;;;;;;8.52;100.00;100299.25;5083569;28;20028;-81
2022/12/01 02:37:35;;;;;;;62.53;23.77;;;;;;;8.59;100.00;100310.75;5077822;28;20032;-82
2022/12/01 02:40:15;;;;;;;64.60;24.48;;;;;;;8.66;100.00;100298.75;5074186;28;20462;-81
2022/12/01 02:42:49;;;;;;;65.07;24.52;;;;;;;8.64;100.00;100298.03;5078329;28;20501;-81
2022/12/01 02:45:41;;;;;;;63.42;24.50;;;;;;;8.72;100.00;100299.91;5074234;28;20044;-81
2022/12/01 02:48:13;;;;;;;54.80;23.73;;;;;;;8.73;100.00;100295.50;5053747;28;20506;-82
2022/12/01 02:50:40;;;;;;;57.75;23.15;;;;;;;8.41;100.00;100290.63;5074390;28;20404;-82
2022/12/01 02:53:09;;;;;;;54.55;21.38;;;;;;;8.36;100.00;100298.09;5084124;28;20032;-82
2022/12/01 02:55:35;;;;;;;56.72;22.75;;;;;;;8.36;100.00;100284.22;5076198;28;20032;-82
2022/12/01 02:58:00;;;;;;;58.25;21.20;;;;;;;8.51;100.00;100281.91;5081445;28;20521;-82
2022/12/01 03:00:27;;;;;;;50.00;20.40;;;;;;;8.49;100.00;100286.44;5085685;28;20390;-82
2022/12/01 03:03:41;;;;;;;51.10;21.65;;;;;;;8.37;100.00;100278.81;5081529;28;20024;-81
2022/12/01 03:06:25;;;;;;;;;;;;;;;8.26;100.00;100286.91;5050891;28;20532;-81
2022/12/01 03:09:12;;;;;;;42.13;17.77;;;;;;;8.08;100.00;100286.84;5082215;28;20274;-81
2022/12/01 03:11:49;;;;;;;39.42;18.10;;;;;;;8.20;100.00;100284.84;5077507;28;20378;-82
2022/12/01 03:14:39;;;;;;;41.47;16.40;;;;;;;8.06;100.00;100289.63;5110434;27;20085;-81
2022/12/01 03:17:10;;;;;;;42.78;18.45;;;;;;;7.95;100.00;100287.22;5079371;28;20054;-81
2022/12/01 03:19:54;;;;;;;45.38;18.90;;;;;;;7.88;100.00;100288.78;5079133;28;20453;-81
2022/12/01 03:22:25;;;;;;;42.63;17.05;;;;;;;8.09;100.00;100291.94;5087442;28;20024;-80
2022/12/01 03:24:55;;;;;;;44.13;18.35;;;;;;;8.18;100.00;100286.78;5063072;28;20024;-80
2022/12/01 03:27:27;;;;;;;49.42;20.38;;;;;;;8.20;100.00;100290.09;5079641;28;20507;-81
2022/12/01 03:29:57;;;;;;;47.20;16.90;;;;;;;8.27;100.00;100296.38;5081568;28;20109;-81
2022/12/01 03:32:36;;;;;;;44.85;17.90;;;;;;;8.15;100.00;100306.22;5073719;28;20047;-81
2022/12/01 03:35:09;;;;;;;45.08;18.55;;;;;;;8.02;100.00;100306.56;5083926;28;20075;-81
2022/12/01 03:37:47;;;;;;;48.95;18.40;;;;;;;8.24;100.00;100310.56;5080746;28;20501;-81
2022/12/01 03:40:17;;;;;;;44.05;17.60;;;;;;;8.19;100.00;100310.19;5076755;28;20043;-81
2022/12/01 03:42:55;;;;;;;43.25;17.83;;;;;;;8.34;100.00;100318.34;5075222;28;20032;-81
2022/12/01 03:45:33;;;;;;;45.55;17.60;;;;;;;8.39;100.00;100321.34;5083287;28;20028;-81
2022/12/01 03:47:59;;;;;;;42.17;17.77;;;;;;;8.30;100.00;100332.72;5077205;28;20443;-81
2022/12/01 03:50:38;;;;;;;53.53;21.08;;;;;;;8.23;100.00;100315.94;5081116;28;20410;-80
2022/12/01 03:53:20;;;;;;;45.25;17.83;;;;;;;8.32;100.00;100309.00;5063155;28;20101;-80
2022/12/01 03:55:52;;;;;;;46.05;19.05;;;;;;;8.36;100.00;100315.59;5074267;28;20032;-80
2022/12/01 03:58:41;;;;;;;43.28;18.27;;;;;;;8.27;100.00;100325.16;5078087;28;20024;-82
2022/12/01 04:01:11;;;;;;;38.60;16.98;;;;;;;8.19;100.00;100328.50;5078070;28;20095;-81
2022/12/01 04:03:37;;;;;;;46.90;18.10;;;;;;;8.33;100.00;100326.34;5085901;28;20028;-82
2022/12/01 04:06:03;;;;;;;45.30;18.05;;;;;;;8.39;100.00;100325.78;5077300;28;20039;-82
2022/12/01 04:08:32;;;;;;;47.88;20.45;;;;;;;8.28;100.00;100319.75;5081114;28;20025;-81
2022/12/01 04:10:58;;;;;;;47.75;17.95;;;;;;;8.14;100.00;100317.63;5081682;28;20064;-81
2022/12/01 04:13:24;;;;;;;46.70;17.70;;;;;;;8.19;100.00;100311.97;5079076;28;20037;-81
2022/12/01 04:15:53;;;;;;;40.50;17.42;;;;;;;8.36;100.00;100315.59;5074311;28;20036;-81
2022/12/01 04:18:20;;;;;;;47.95;19.20;;;;;;;8.25;100.00;100304.38;5082370;28;20103;-82
2022/12/01 04:20:47;;;;;;;48.95;18.33;;;;;;;8.20;100.00;100308.38;5078859;28;20025;-81
2022/12/01 04:23:58;;;;;;;49.25;17.90;;;;;;;7.87;100.00;100316.69;5075235;28;20486;-81
2022/12/01 04:26:00;;;;;;;43.00;18.52;;;;;;;8.19;100.00;100314.59;5076302;28;20044;-82
2022/12/01 04:28:27;;;;;;;43.50;19.08;;;;;;;8.12;100.00;100311.75;5081777;28;20028;-81
2022/12/01 04:30:53;;;;;;;43.30;17.25;;;;;;;8.27;100.00;100307.66;5079560;28;20037;-81
2022/12/01 04:33:18;;;;;;;46.88;19.70;;;;;;;8.33;100.00;100300.19;5082390;28;20501;-81
2022/12/01 04:35:44;;;;;;;46.03;19.33;;;;;;;8.38;100.00;100306.63;5078410;28;20086;-82
2022/12/01 04:38:10;;;;;;;51.83;18.70;;;;;;;8.25;100.00;100317.44;5080161;28;20029;-82
2022/12/01 04:40:37;;;;;;;49.75;18.15;;;;;;;8.21;100.00;100304.81;5081551;28;20028;-81
2022/12/01 04:43:03;;;;;;;50.47;18.63;;;;;;;8.32;100.00;100298.53;5081787;28;20092;-80
2022/12/01 04:45:29;;;;;;;45.38;18.15;;;;;;;8.27;100.00;100293.78;5076919;28;20432;-81
2022/12/01 04:47:54;;;;;;;47.17;18.95;;;;;;;8.12;100.00;100289.03;5076538;28;20025;-81
2022/12/01 04:50:20;;;;;;;51.38;19.13;;;;;;;8.13;100.00;100279.38;5063212;28;20382;-82
2022/12/01 04:52:46;;;;;;;51.25;19.30;;;;;;;8.18;100.00;100279.78;5061306;28;20032;-82
2022/12/01 04:55:14;;;;;;;47.38;20.23;;;;;;;8.20;100.00;100269.16;5077389;28;20031;-82
2022/12/01 04:57:40;;;;;;;50.05;18.63;;;;;;;8.17;100.00;100269.47;5077033;28;20030;-81
2022/12/01 05:00:11;;;;;;;50.10;18.73;;;;;;;7.99;100.00;100275.47;5082185;28;20115;-81
2022/12/01 05:02:42;;;;;;;47.42;18.25;;;;;;;8.04;100.00;100269.81;5071621;28;20024;-81
2022/12/01 05:05:09;;;;;;;45.72;17.20;;;;;;;8.18;100.00;100273.72;5075916;28;20035;-80
2022/12/01 05:07:34;;;;;;;50.10;18.63;;;;;;;8.27;100.00;100270.22;5078952;28;20023;-80
2022/12/01 05:10:00;;;;;;;43.90;17.35;;;;;;;8.13;100.00;100263.69;5074142;28;20516;-80
2022/12/01 05:12:26;;;;;;;46.20;18.05;;;;;;;7.94;100.00;100264.66;5080147;28;20545;-81
2022/12/01 05:14:51;;;;;;;46.17;17.33;;;;;;;8.02;100.00;100269.97;5081450;28;20060;-80
2022/12/01 05:17:17;;;;;;;49.85;18.83;;;;;;;8.02;100.00;100271.75;5078831;28;20040;-80
2022/12/01 05:22:26;;;;;;;47.67;17.25;;;;;;;7.63;100.00;100278.84;5081364;28;20032;-80
2022/12/01 05:24:52;;;;;;;45.28;17.85;;;;;;;7.69;100.00;100274.84;5077121;28;20024;-81
2022/12/01 05:27:17;;;;;;;59.28;20.25;;;;;;;7.67;100.00;100285.41;5076975;28;20051;-81
2022/12/01 05:29:43;;;;;;;48.50;17.58;;;;;;;7.61;100.00;100279.94;5061949;28;20402;-79
2022/12/01 05:32:08;;;;;;;48.42;18.98;;;;;;;7.89;100.00;100277.34;5079048;28;20052;-79
2022/12/01 05:34:34;;;;;;;52.90;19.63;;;;;;;8.02;100.00;100288.25;5073593;28;20032;-78
2022/12/01 05:37:00;;;;;;;61.35;20.40;;;;;;;7.71;100.00;100288.56;5074779;28;20431;-80
2022/12/01 05:39:25;;;;;;;52.70;20.83;;;;;;;7.82;100.00;100282.34;5075735;28;20059;-80
2022/12/01 05:41:51;;;;;;;57.25;19.83;;;;;;;7.89;100.00;100285.19;5083434;28;20367;-79
2022/12/01 05:44:17;;;;;;;55.10;18.80;;;;;;;7.75;100.00;100287.31;5077686;28;20110;-79
2022/12/01 05:46:42;;;;;;;56.22;19.48;;;;;;;7.96;100.00;100288.84;5076105;28;20115;-79
2022/12/01 05:49:08;;;;;;;62.63;20.45;;;;;;;7.96;100.00;100294.91;5075804;28;20039;-80
2022/12/01 05:51:33;;;;;;;56.22;20.58;;;;;;;8.12;100.00;100289.03;5071520;28;20052;-81
2022/12/01 05:53:59;;;;;;;52.92;20.58;;;;;;;8.16;100.00;100300.03;5073424;28;20040;-82
2022/12/01 05:56:25;;;;;;;51.65;19.58;;;;;;;8.04;100.00;100295.97;5074582;28;20038;-81
2022/12/01 05:58:51;;;;;;;60.17;20.55;;;;;;;7.84;100.00;100289.03;5076616;28;20028;-82
2022/12/01 06:01:16;;;;;;;60.05;20.70;;;;;;;7.63;100.00;100293.69;5074234;28;20119;-81
2022/12/01 06:03:42;;;;;;;59.63;20.45;;;;;;;7.70;100.00;100302.63;5074658;28;20124;-81
2022/12/01 06:06:07;;;;;;;60.22;21.00;;;;;;;7.90;100.00;100307.75;5075463;28;20028;-82
2022/12/01 06:08:33;;;;;;;65.50;21.48;;;;;;;7.52;100.00;100308.59;5061381;28;20032;-82
2022/12/01 06:10:59;;;;;;;62.50;22.00;;;;;;;7.85;100.00;100313.41;5076535;28;20470;-82
2022/12/01 06:13:25;;;;;;;62.08;21.48;;;;;;;7.56;100.00;100315.16;5060919;28;20078;-82
2022/12/01 06:15:56;;;;;;;59.88;19.98;;;;;;;7.49;100.00;100318.50;5076762;28;20028;-82
2022/12/01 06:18:22;;;;;;;65.03;21.20;;;;;;;7.88;100.00;100317.53;5077344;28;20037;-82
2022/12/01 06:20:48;;;;;;;62.95;20.95;;;;;;;7.82;100.00;100319.72;5079643;28;20024;-81
2022/12/01 06:23:13;;;;;;;67.72;22.63;;;;;;;7.70;100.00;100318.28;5081816;28;20024;-82
2022/12/01 06:25:39;;;;;;;67.18;23.00;;;;;;;7.71;100.00;100322.56;5075181;28;20039;-82
2022/12/01 06:28:05;;;;;;;71.15;22.20;;;;;;;7.76;100.00;100325.56;5078473;28;20028;-81
2022/12/01 06:30:31;;;;;;;71.00;23.45;;;;;;;7.89;100.00;100325.22;5081212;28;20036;-81
2022/12/01 06:32:57;;;;;;;69.93;23.35;;;;;;;7.82;100.00;100321.53;5075300;28;21535;-81
2022/12/01 06:35:22;;;;;;;73.55;22.35;;;;;;;7.82;100.00;100324.97;5061488;28;20024;-80
2022/12/01 06:37:48;;;;;;;65.97;22.95;;;;;;;8.01;100.00;100333.69;5076994;28;20024;-80
2022/12/01 06:40:14;;;;;;;73.55;22.38;;;;;;;7.83;100.00;100329.22;5078987;28;20089;-81
2022/12/01 06:42:39;;;;;;;74.38;22.70;;;;;;;7.92;100.00;100330.16;5083223;28;20426;-81
2022/12/01 06:45:05;;;;;;;74.85;22.42;;;;;;;7.99;100.00;100330.41;5088614;28;20111;-81
2022/12/01 06:47:31;;;;;;;68.70;22.17;;;;;;;8.02;100.00;100345.78;5079925;28;20032;-81
2022/12/01 06:49:57;;;;;;;56.65;21.00;;;;;;;7.94;100.00;100341.28;5078206;28;20217;-81
2022/12/01 06:52:23;;;;;;;65.85;22.52;;;;;;;8.09;100.00;100320.72;5079153;28;20390;-81
2022/12/01 06:54:49;;;;;;;68.05;22.13;;;;;;;8.19;100.00;100325.91;5080969;28;20056;-79
2022/12/01 06:57:15;;;;;;;66.25;22.52;;;;;;;8.19;100.00;100325.06;5081562;28;20119;-83
2022/12/01 06:59:40;;;;;;;62.03;21.73;;;;;;;8.28;100.00;100334.66;5081504;28;20028;-82
2022/12/01 07:02:09;;;;;;;63.13;22.40;;;;;;;8.38;100.00;100331.97;5075902;28;20035;-79
2022/12/01 07:04:35;;;;;;;63.95;22.02;;;;;;;8.27;100.00;100327.78;5075858;28;20036;-80
2022/12/01 07:07:01;;;;;;;57.20;21.13;;;;;;;8.23;100.00;100331.63;5089006;28;20386;-81
2022/12/01 07:09:26;;;;;;;63.42;21.48;;;;;;;8.21;100.00;100333.56;5077891;28;20043;-81
2022/12/01 07:11:52;;;;;;;70.15;22.95;;;;;;;8.10;100.00;100345.91;5067688;28;20021;-83
2022/12/01 07:14:23;;;;;;;65.28;22.08;;;;;;;8.23;100.00;100357.78;5081453;28;20028;-81
2022/12/01 07:16:49;;;;;;;64.00;21.83;;;;;;;8.13;100.00;100348.22;5079237;28;20035;-83
2022/12/01 07:19:15;;;;;;;56.00;20.45;;;;;;;8.12;100.00;100350.97;5083046;28;20032;-81
2022/12/01 07:21:40;;;;;;;51.10;20.35;;;;;;;8.29;100.00;100352.00;5084108;28;20035;-81
2022/12/01 07:24:07;;;;;;;61.30;22.30;;;;;;;8.24;100.00;100354.19;5080517;28;20115;-80
2022/12/01 07:26:33;;;;;;;63.15;20.52;;;;;;;8.36;100.00;100354.84;5077882;28;20123;-80
2022/12/01 07:28:58;;;;;;;60.45;20.80;;;;;;;8.44;100.00;100349.69;5077552;28;20024;-79
2022/12/01 07:31:24;;;;;;;59.28;21.20;;;;;;;8.36;100.00;100354.84;5074140;28;20040;-79
2022/12/01 07:33:51;;;;;;;58.65;20.40;;;;;;;8.20;100.00;100364.16;5074836;28;20501;-80
2022/12/01 07:36:16;;;;;;;60.58;20.50;;;;;;;8.15;100.00;100356.75;5080482;28;20162;-80
2022/12/01 07:38:42;;;;;;;66.88;22.50;;;;;;;8.27;100.00;100367.00;5078964;28;20035;-80
2022/12/01 07:41:10;;;;;;;59.25;21.02;;;;;;;8.34;100.00;100364.59;5080169;28;20043;-79
2022/12/01 07:43:37;;;;;;;62.63;23.33;;;;;;;8.39;100.00;100368.44;5079473;28;20074;-81
2022/12/01 07:46:07;;;;;;;64.25;21.50;;;;;;;8.42;100.00;100373.38;5078424;28;20055;-80
2022/12/01 07:48:33;;;;;;;59.72;20.65;;;;;;;8.39;100.00;100373.66;5068870;28;20033;-80
2022/12/01 07:50:59;;;;;;;68.53;21.85;;;;;;;8.40;100.00;100369.28;5075331;28;20077;-80
2022/12/01 07:53:24;;;;;;;55.28;21.58;;;;;;;8.37;100.00;100375.63;5084090;28;20029;-80
2022/12/01 07:55:50;;;;;;;70.75;24.00;;;;;;;8.38;100.00;100371.22;5076309;28;20036;-81
2022/12/01 07:58:16;;;;;;;68.32;22.20;;;;;;;8.24;100.00;100383.81;5072452;28;20089;-80
2022/12/01 08:00:42;;;;;;;66.32;22.80;;;;;;;8.07;100.00;100380.19;5076005;28;20036;-81
2022/12/01 08:03:11;;;;;;;56.65;20.23;;;;;;;8.25;100.00;100389.84;5083388;28;20074;-81
2022/12/01 08:05:37;;;;;;;63.33;22.85;;;;;;;8.21;100.00;100393.72;5059986;28;20051;-80
2022/12/01 08:08:03;;;;;;;64.90;22.50;;;;;;;8.28;100.00;100397.44;5076450;28;20036;-81
2022/12/01 08:10:28;;;;;;;65.13;23.50;;;;;;;7.92;100.00;100413.00;5078673;28;20025;-86
2022/12/01 08:12:54;;;;;;;62.40;21.85;;;;;;;8.06;100.00;100411.69;5078361;28;20037;-84
2022/12/01 08:15:19;;;;;;;72.60;24.65;;;;;;;8.02;100.00;100408.53;5079006;28;20020;-85
2022/12/01 08:17:45;;;;;;;62.20;22.92;;;;;;;8.03;100.00;100410.19;5080863;28;20085;-85
2022/12/01 08:20:11;;;;;;;62.45;21.40;;;;;;;8.25;100.00;100408.16;5080804;28;20408;-86
2022/12/01 08:22:37;;;;;;;71.70;22.88;;;;;;;8.31;100.00;100406.75;5063482;28;20512;-85
2022/12/01 08:25:03;;;;;;;61.72;21.98;;;;;;;8.41;100.00;100407.56;5081812;28;20071;-85
2022/12/01 08:27:29;;;;;;;65.28;21.95;;;;;;;8.43;100.00;100406.41;5075945;28;20436;-85
2022/12/01 08:29:55;;;;;;;58.25;21.88;;;;;;;8.53;100.00;100406.38;5062175;28;20038;-84
2022/12/01 08:32:21;;;;;;;58.00;22.08;;;;;;;8.54;100.00;100402.81;5077195;28;20047;-84
2022/12/01 08:34:46;;;;;;;61.15;21.75;;;;;;;8.63;100.00;100401.09;5081563;28;20031;-87
2022/12/01 08:37:12;;;;;;;65.32;23.00;;;;;;;8.63;100.00;100395.84;5080948;28;20035;-86
2022/12/01 08:39:37;;;;;;;55.38;21.15;;;;;;;8.61;100.00;100397.81;5079584;28;20031;-87
2022/12/01 08:42:03;;;;;;;52.38;20.40;;;;;;;8.64;100.00;100396.69;5081523;28;20466;-87
2022/12/01 08:44:29;;;;;;;58.15;21.30;;;;;;;8.69;100.00;100399.69;5088993;28;20107;-87
2022/12/01 08:46:54;;;;;;;59.95;21.90;;;;;;;8.79;100.00;100399.63;5062465;28;20036;-87
2022/12/01 08:49:21;;;;;;;61.30;23.25;;;;;;;8.86;100.00;100408.53;5076391;28;20043;-89
2022/12/01 08:51:47;;;;;;;57.38;23.48;;;;;;;8.85;100.00;100412.13;5060921;28;20056;-87
2022/12/01 08:54:13;;;;;;;60.10;20.70;;;;;;;8.61;100.00;100407.47;5078395;28;20483;-88
2022/12/01 08:56:42;;;;;;;63.08;22.55;;;;;;;8.73;100.00;100413.31;5075514;28;20081;-86
2022/12/01 08:59:08;;;;;;;61.88;22.38;;;;;;;8.68;100.00;100419.81;5061392;28;20035;-88
2022/12/01 09:01:34;;;;;;;57.83;23.88;;;;;;;8.47;100.00;100411.38;5081705;28;20029;-87
2022/12/01 09:04:04;;;;;;;63.95;22.08;;;;;;;8.80;100.00;100411.72;5060137;28;20100;-88
2022/12/01 09:06:32;;;;;;;58.00;22.02;;;;;;;8.81;100.00;100402.91;5078158;28;20034;-86
2022/12/01 09:09:01;;;;;;;55.20;21.45;;;;;;;8.94;100.00;100408.59;5077777;28;20035;-88
2022/12/01 09:11:26;;;;;;;63.42;22.60;;;;;;;8.92;100.00;100396.63;5080196;28;20098;-84
2022/12/01 09:13:52;;;;;;;57.95;22.02;;;;;;;8.97;100.00;100403.06;5079392;28;20027;-84
2022/12/01 09:16:17;;;;;;;66.00;21.92;;;;;;;8.77;100.00;100412.03;5075503;28;20067;-83
2022/12/01 09:18:45;;;;;;;61.72;22.30;;;;;;;8.85;100.00;100419.97;5076465;28;20063;-85
2022/12/01 09:21:21;;;;;;;54.78;20.77;;;;;;;9.01;100.00;100408.84;5078615;28;20060;-85
2022/12/01 09:23:47;;;;;;;62.88;21.75;;;;;;;8.85;100.00;100410.31;5062447;28;20107;-83
2022/12/01 09:26:17;;;;;;;52.28;20.63;;;;;;;8.89;100.00;100403.00;5077718;28;20024;-84
2022/12/01 09:28:43;;;;;;;64.60;23.23;;;;;;;8.53;100.00;100400.34;5078112;28;20036;-83
2022/12/01 09:31:11;;;;;;;50.55;19.85;;;;;;;8.77;100.00;100401.56;5076855;28;20130;-84
2022/12/01 09:33:38;;;;;;;57.75;20.73;;;;;;;8.94;100.00;100398.13;5076024;28;20096;-84
2022/12/01 09:36:05;;;;;;;65.18;25.60;;;;;;;8.95;100.00;100399.78;5084259;28;20528;-83
2022/12/01 09:38:33;;;;;;;65.38;24.90;;;;;;;9.00;100.00;100396.72;5080215;28;20428;-84
2022/12/01 09:41:03;;;;;;;68.63;23.83;;;;;;;9.04;100.00;100398.03;5076934;28;20085;-84
2022/12/01 09:43:39;;;;;;;72.00;26.17;;;;;;;8.88;100.00;100401.34;5081802;28;20036;-85
2022/12/01 09:46:08;;;;;;;71.28;24.35;;;;;;;8.53;100.00;100405.59;5060957;28;20028;-84
2022/12/01 09:48:45;;;;;;;62.83;24.42;;;;;;;8.78;100.00;100405.81;5078101;28;20124;-85
2022/12/01 09:51:16;;;;;;;68.10;26.25;;;;;;;8.86;100.00;100408.53;5076026;28;20135;-85
2022/12/01 09:53:43;;;;;;;67.38;25.38;;;;;;;8.93;100.00;100400.88;5079420;28;20039;-86
2022/12/01 09:56:22;;;;;;;76.50;26.88;;;;;;;9.16;100.00;100390.78;5060869;28;20043;-85
2022/12/01 09:58:52;;;;;;;68.68;26.25;;;;;;;9.18;100.00;100388.00;5072381;28;20031;-86
2022/12/01 10:01:19;;;;;;;78.93;27.63;;;;;;;9.34;100.00;100395.16;5078814;28;20042;-85
2022/12/01 10:03:54;;;;;;;80.57;29.55;;;;;;;9.32;100.00;100394.50;5080279;28;20024;-89
2022/12/01 10:06:28;;;;;;;78.18;28.35;;;;;;;9.49;100.00;100384.94;5082651;28;20470;-89
2022/12/01 10:09:04;;;;;;;74.30;27.90;;;;;;;9.47;100.00;100382.50;5081931;28;20478;-90
2022/12/01 10:11:38;;;;;;;77.43;27.45;;;;;;;9.59;100.00;100396.16;5085169;28;20043;-89
2022/12/01 10:14:08;;;;;;;77.38;28.90;;;;;;;9.43;100.00;100381.13;5081351;28;20142;-84
2022/12/01 10:16:54;;;;;;;70.15;27.90;;;;;;;9.34;100.00;100384.69;5078980;28;20105;-85
2022/12/01 10:19:26;;;;;;;71.78;27.25;;;;;;;9.43;100.00;100381.97;5077047;28;20064;-84
2022/12/01 10:22:06;;;;;;;72.35;27.13;;;;;;;9.24;100.00;100388.22;5087205;28;20036;-84
2022/12/01 10:24:47;;;;;;;76.05;27.02;;;;;;;9.47;100.00;100382.50;5061512;28;20031;-85
2022/12/01 10:27:15;;;;;;;75.40;29.20;;;;;;;9.56;100.00;100378.94;5085263;28;20502;-84
2022/12/01 10:29:53;;;;;;;81.40;31.13;;;;;;;9.21;100.00;100377.22;5077602;28;20028;-85
2022/12/01 10:32:31;;;;;;;76.10;26.65;;;;;;;9.23;100.00;100373.47;5084645;28;20040;-85
2022/12/01 10:34:57;;;;;;;70.10;27.25;;;;;;;9.37;100.00;100371.28;5079579;28;20037;-86
2022/12/01 10:37:26;;;;;;;77.22;29.13;;;;;;;9.52;100.00;100372.34;5068414;28;20024;-84
2022/12/01 10:39:54;;;;;;;73.13;28.33;;;;;;;9.62;100.00;100376.66;5084223;28;20125;-86
2022/12/01 10:42:33;;;;;;;79.95;28.70;;;;;;;9.81;100.00;100383.50;5065191;28;20093;-85
2022/12/01 10:45:03;;;;;;;72.32;29.48;;;;;;;9.85;100.00;100383.03;5060561;28;20040;-85
2022/12/01 10:47:30;;;;;;;72.93;28.52;;;;;;;10.03;100.00;100381.31;5061062;28;21203;-86
2022/12/01 10:49:55;;;;;;;73.60;29.58;;;;;;;9.93;100.00;100376.19;5084166;28;20059;-86
2022/12/01 10:52:40;;;;;;;71.75;28.70;;;;;;;9.99;100.00;100379.00;5086270;28;20162;-86
2022/12/01 10:55:21;;;;;;;66.97;26.75;;;;;;;9.82;100.00;100375.47;5058340;28;20081;-86
2022/12/01 10:57:47;;;;;;;68.93;27.52;;;;;;;9.96;100.00;100376.69;5076101;28;20024;-85
2022/12/01 11:00:25;;;;;;;69.07;28.98;;;;;;;9.99;100.00;100380.78;5081269;28;20443;-87
2022/12/01 11:02:51;;;;;;;71.82;27.40;;;;;;;9.77;100.00;100362.00;5080163;28;20028;-81
2022/12/01 11:05:26;;;;;;;60.85;25.73;;;;;;;10.20;100.00;100369.06;5082707;28;20032;-81
2022/12/01 11:07:53;;;;;;;55.20;23.42;;;;;;;10.15;100.00;100365.13;5076278;28;20024;-81
2022/12/01 11:10:28;;;;;;;49.63;22.65;;;;;;;10.16;100.00;100360.69;5081615;28;20474;-82
2022/12/01 11:12:56;;;;;;;55.97;23.73;;;;;;;10.23;100.00;100368.75;5080036;28;20123;-81
2022/12/01 11:15:28;;;;;;;52.67;24.00;;;;;;;10.32;100.00;100357.28;5061332;28;20040;-81
2022/12/01 11:17:57;;;;;;;53.38;22.50;;;;;;;10.41;100.00;100356.34;5082849;28;20059;-80
2022/12/01 11:20:26;;;;;;;53.75;22.33;;;;;;;10.19;100.00;100363.00;5081665;28;20111;-80
2022/12/01 11:23:12;;;;;;;48.60;21.00;;;;;;;10.27;100.00;100351.72;5084713;28;20036;-80
2022/12/01 11:25:38;;;;;;;50.03;21.40;;;;;;;10.38;100.00;100363.72;5070129;28;20486;-79